Time;durP1;ratioP1;P1;durP2;ratioP2;P2;SDS_P1;SDS_P2;PMS_P1;PMS_P2;Temp;Humidity;BMP_temperature;BMP_pressure;BME280_temperature;BME280_humidity;BME280_pressure;Samples;Min_cycle;Max_cycle;Signal;HPM_P1;HPM_P2
2022/08/25 00:01:38;;;;;;;1.98;1.40;;;26.90;96.70;;;;;;5040321;28;20050;-74
2022/08/25 00:04:09;;;;;;;3.53;1.15;;;26.90;96.70;;;;;;5041508;28;20052;-74
2022/08/25 00:06:38;;;;;;;3.03;1.30;;;26.80;96.70;;;;;;5041653;28;20793;-74
2022/08/25 00:09:07;;;;;;;1.60;1.30;;;26.70;96.70;;;;;;5054678;28;20136;-74
2022/08/25 00:11:38;;;;;;;2.42;1.30;;;26.60;96.70;;;;;;5034540;28;20062;-74
2022/08/25 00:14:08;;;;;;;2.50;1.30;;;26.40;96.70;;;;;;5049642;28;20454;-74
2022/08/25 00:16:37;;;;;;;1.85;1.40;;;26.40;96.70;;;;;;5050769;28;20041;-74
2022/08/25 00:19:10;;;;;;;1.45;1.02;;;26.30;96.70;;;;;;5044413;28;20048;-74
2022/08/25 00:21:39;;;;;;;2.90;1.60;;;26.20;96.70;;;;;;5041390;28;20630;-74
2022/08/25 00:24:09;;;;;;;1.83;1.25;;;26.20;96.70;;;;;;5052802;28;20044;-74
2022/08/25 00:26:41;;;;;;;1.75;1.42;;;26.10;96.70;;;;;;5050323;28;20041;-76
2022/08/25 00:29:10;;;;;;;2.58;1.10;;;26.20;96.70;;;;;;5035809;28;20106;-74
2022/08/25 00:31:39;;;;;;;2.70;1.20;;;26.30;96.70;;;;;;5060225;28;20051;-74
2022/08/25 00:34:09;;;;;;;3.88;1.17;;;26.10;96.70;;;;;;5040423;28;20458;-74
2022/08/25 00:36:38;;;;;;;4.03;1.10;;;25.70;96.70;;;;;;5054178;28;20088;-74
2022/08/25 00:39:07;;;;;;;1.95;1.40;;;25.60;96.70;;;;;;5066044;28;20502;-74
2022/08/25 00:41:39;;;;;;;2.63;1.45;;;25.50;96.70;;;;;;5052924;28;20043;-74
2022/08/25 00:44:09;;;;;;;1.95;1.20;;;25.50;96.70;;;;;;5051310;28;20044;-74
2022/08/25 00:46:40;;;;;;;1.33;1.00;;;25.40;96.70;;;;;;5042156;28;20041;-74
2022/08/25 00:49:13;;;;;;;1.17;1.08;;;25.60;96.70;;;;;;5037163;28;20048;-74
2022/08/25 00:51:57;;;;;;;2.17;1.30;;;25.80;96.70;;;;;;5051531;28;20110;-75
2022/08/25 00:54:28;;;;;;;2.70;1.08;;;26.10;96.70;;;;;;5057095;28;20047;-74
2022/08/25 00:56:58;;;;;;;2.90;1.40;;;26.20;96.70;;;;;;5060375;28;20796;-74
2022/08/25 00:59:27;;;;;;;2.55;1.33;;;26.10;96.70;;;;;;5051801;28;20090;-74
2022/08/25 01:01:55;;;;;;;1.70;1.20;;;25.90;96.70;;;;;;5030815;28;20144;-74
2022/08/25 01:04:24;;;;;;;2.13;1.38;;;26.00;96.70;;;;;;5056385;28;20071;-74
2022/08/25 01:06:52;;;;;;;2.85;1.60;;;26.10;96.70;;;;;;5061129;28;20061;-74
2022/08/25 01:09:20;;;;;;;2.03;1.38;;;26.00;96.70;;;;;;5069991;28;20037;-74
2022/08/25 01:11:49;;;;;;;1.92;1.20;;;26.10;96.70;;;;;;5050223;28;20111;-74
2022/08/25 01:14:20;;;;;;;2.22;1.48;;;26.10;96.70;;;;;;5057802;28;20119;-74
2022/08/25 01:16:48;;;;;;;1.90;1.27;;;26.00;96.70;;;;;;5061571;28;20044;-74
2022/08/25 01:19:20;;;;;;;1.50;1.30;;;26.00;96.70;;;;;;5058706;28;20052;-75
2022/08/25 01:21:52;;;;;;;2.78;1.30;;;25.90;96.70;;;;;;5030135;28;20049;-75
2022/08/25 01:24:25;;;;;;;1.90;1.48;;;25.90;96.70;;;;;;5057662;28;20067;-75
2022/08/25 01:26:53;;;;;;;3.13;1.55;;;26.00;96.70;;;;;;5053494;28;20052;-75
2022/08/25 01:29:21;;;;;;;1.73;1.52;;;26.00;96.70;;;;;;5043047;28;20082;-75
2022/08/25 01:31:54;;;;;;;3.70;1.40;;;26.10;96.70;;;;;;5050064;28;20496;-74
2022/08/25 01:34:24;;;;;;;1.58;1.40;;;26.00;96.70;;;;;;5026174;28;20147;-74
2022/08/25 01:36:56;;;;;;;2.17;1.50;;;25.90;96.70;;;;;;5040946;28;20045;-76
2022/08/25 01:39:25;;;;;;;2.10;1.45;;;25.90;96.70;;;;;;5045221;28;20044;-75
2022/08/25 01:42:22;;;;;;;1.73;1.20;;;25.80;96.70;;;;;;5046087;28;20040;-75
2022/08/25 01:44:50;;;;;;;1.73;1.20;;;25.70;96.70;;;;;;5041815;28;20049;-75
2022/08/25 01:47:18;;;;;;;2.20;1.13;;;25.80;96.70;;;;;;5040493;28;20045;-75
2022/08/25 01:49:46;;;;;;;2.92;1.30;;;25.60;96.70;;;;;;5039241;28;20410;-75
2022/08/25 01:52:20;;;;;;;2.05;1.48;;;25.50;96.70;;;;;;5053285;28;20131;-75
2022/08/25 01:54:48;;;;;;;1.90;1.33;;;25.50;96.70;;;;;;5059095;28;20481;-75
2022/08/25 01:57:16;;;;;;;2.83;1.40;;;25.50;96.70;;;;;;5057017;28;20037;-75
2022/08/25 01:59:45;;;;;;;1.63;1.40;;;25.60;96.70;;;;;;5042983;28;20052;-74
2022/08/25 02:02:13;;;;;;;2.15;1.20;;;25.60;96.70;;;;;;5052766;28;20036;-75
2022/08/25 02:04:45;;;;;;;3.88;1.75;;;25.40;96.70;;;;;;5033277;28;20049;-74
2022/08/25 02:07:13;;;;;;;2.15;1.20;;;25.40;96.70;;;;;;5019576;28;20419;-75
2022/08/25 02:09:43;;;;;;;2.17;1.05;;;25.40;96.70;;;;;;5018859;28;20049;-74
2022/08/25 02:12:11;;;;;;;2.55;1.13;;;25.40;96.70;;;;;;5014224;28;20128;-75
2022/08/25 02:14:39;;;;;;;1.50;1.20;;;25.40;96.70;;;;;;5020674;28;20055;-74
2022/08/25 02:17:08;;;;;;;4.32;1.77;;;25.40;96.70;;;;;;5019641;28;20045;-75
2022/08/25 02:19:36;;;;;;;3.25;1.73;;;25.30;96.70;;;;;;5013055;28;20053;-75
2022/08/25 02:22:04;;;;;;;2.22;1.50;;;25.30;96.70;;;;;;5020411;28;20055;-75
2022/08/25 02:24:33;;;;;;;1.45;1.30;;;25.20;96.70;;;;;;5018308;28;20203;-75
2022/08/25 02:27:02;;;;;;;3.58;1.60;;;25.10;96.70;;;;;;5018330;28;20407;-74
2022/08/25 02:29:30;;;;;;;2.65;1.27;;;25.30;96.70;;;;;;5011419;28;20214;-75
2022/08/25 02:31:59;;;;;;;3.45;1.42;;;25.40;96.70;;;;;;5019938;28;20054;-75
2022/08/25 02:34:26;;;;;;;3.42;1.38;;;25.30;96.70;;;;;;5012638;28;20037;-75
2022/08/25 02:36:54;;;;;;;1.70;1.50;;;25.40;96.70;;;;;;5016293;28;20042;-74
2022/08/25 02:39:22;;;;;;;2.75;1.60;;;25.30;96.70;;;;;;5017486;28;20136;-75
2022/08/25 02:41:50;;;;;;;1.80;1.58;;;25.40;96.70;;;;;;5019327;28;20045;-75
2022/08/25 02:44:20;;;;;;;3.17;1.70;;;25.30;96.70;;;;;;5027930;28;20068;-75
2022/08/25 02:46:48;;;;;;;2.70;1.38;;;25.20;96.70;;;;;;5020182;28;20095;-74
2022/08/25 02:49:15;;;;;;;3.78;1.83;;;25.10;96.70;;;;;;5012771;28;20049;-75
2022/08/25 02:51:43;;;;;;;2.83;1.40;;;25.10;96.70;;;;;;5015311;28;20046;-75
2022/08/25 02:54:11;;;;;;;2.88;1.88;;;25.00;96.70;;;;;;5012785;28;20053;-74
2022/08/25 02:56:41;;;;;;;3.95;1.95;;;25.20;96.70;;;;;;5019123;28;20131;-74
2022/08/25 02:59:10;;;;;;;1.90;1.70;;;24.90;96.70;;;;;;5018115;28;20048;-75
2022/08/25 03:01:41;;;;;;;5.40;3.13;;;24.40;96.70;;;;;;5037978;28;20060;-75
2022/08/25 03:04:09;;;;;;;14.55;6.38;;;24.30;96.70;;;;;;5015352;28;20055;-75
2022/08/25 03:06:38;;;;;;;10.00;4.20;;;24.30;96.70;;;;;;5060576;28;20045;-75
2022/08/25 03:09:06;;;;;;;5.32;2.80;;;24.30;96.70;;;;;;5035618;28;20040;-75
2022/08/25 03:11:37;;;;;;;5.65;2.17;;;24.50;96.70;;;;;;5044793;28;20040;-75
2022/08/25 03:14:06;;;;;;;5.25;3.38;;;24.50;96.70;;;;;;5039552;28;20041;-74
2022/08/25 03:16:34;;;;;;;3.30;2.33;;;24.60;96.70;;;;;;5039811;28;20053;-75
2022/08/25 03:19:04;;;;;;;2.15;1.48;;;24.50;96.70;;;;;;5038245;28;20201;-74
2022/08/25 03:21:44;;;;;;;3.55;1.60;;;24.80;96.70;;;;;;5036450;28;20060;-75
2022/08/25 03:24:13;;;;;;;3.92;1.60;;;24.90;96.70;;;;;;5026287;28;20044;-75
2022/08/25 03:26:53;;;;;;;2.42;1.90;;;24.60;96.70;;;;;;5059225;28;20036;-75
2022/08/25 03:29:22;;;;;;;1.98;1.50;;;24.30;96.70;;;;;;5055542;28;20631;-74
2022/08/25 03:31:51;;;;;;;2.85;1.75;;;24.10;96.70;;;;;;5056637;28;20053;-75
2022/08/25 03:34:21;;;;;;;4.10;1.38;;;24.10;96.70;;;;;;5059878;28;20123;-75
2022/08/25 03:36:51;;;;;;;4.07;1.55;;;24.20;96.70;;;;;;5052084;28;20053;-75
2022/08/25 03:39:21;;;;;;;3.58;1.75;;;24.40;96.70;;;;;;5055090;28;20486;-75
2022/08/25 03:41:50;;;;;;;3.40;1.85;;;24.60;96.70;;;;;;5044571;28;20099;-75
2022/08/25 03:44:20;;;;;;;2.13;1.80;;;24.60;96.70;;;;;;5044441;28;20048;-75
2022/08/25 03:46:50;;;;;;;3.00;1.98;;;24.70;96.70;;;;;;5034854;28;20040;-74
2022/08/25 03:49:22;;;;;;;3.60;1.50;;;24.60;96.70;;;;;;5058697;28;20059;-75
2022/08/25 03:51:52;;;;;;;1.90;1.40;;;24.60;96.70;;;;;;5047792;28;20401;-75
2022/08/25 03:54:23;;;;;;;2.42;1.73;;;24.70;96.70;;;;;;5069408;28;20486;-74
2022/08/25 03:56:51;;;;;;;2.47;1.73;;;24.70;96.70;;;;;;5048716;28;20521;-75
2022/08/25 03:59:20;;;;;;;3.10;1.98;;;24.70;96.70;;;;;;5069225;28;20526;-75
2022/08/25 04:01:48;;;;;;;3.78;2.00;;;24.70;96.70;;;;;;5038870;28;20159;-75
2022/08/25 04:04:23;;;;;;;2.33;1.50;;;24.60;96.70;;;;;;5052198;28;20051;-75
2022/08/25 04:06:51;;;;;;;3.22;1.75;;;24.60;96.70;;;;;;5049421;28;20081;-75
2022/08/25 04:09:20;;;;;;;2.42;1.60;;;24.70;96.70;;;;;;5052414;28;20134;-75
2022/08/25 04:11:48;;;;;;;3.20;1.83;;;24.70;96.70;;;;;;5055526;28;20045;-75
2022/08/25 04:14:21;;;;;;;4.78;1.77;;;24.70;96.70;;;;;;5033945;28;20135;-75
2022/08/25 04:16:49;;;;;;;6.03;1.83;;;24.60;96.70;;;;;;5054348;28;20378;-75
2022/08/25 04:19:18;;;;;;;4.65;1.73;;;24.40;96.70;;;;;;5058035;28;20051;-75
2022/08/25 04:21:48;;;;;;;2.40;1.67;;;24.40;96.70;;;;;;5054216;28;20048;-75
2022/08/25 04:24:16;;;;;;;2.85;1.40;;;24.50;96.70;;;;;;5049171;28;20087;-74
2022/08/25 04:26:46;;;;;;;2.97;1.50;;;24.60;96.70;;;;;;5040398;28;20056;-73
2022/08/25 04:29:17;;;;;;;2.22;1.63;;;24.40;96.70;;;;;;5052534;28;20132;-75
2022/08/25 04:31:51;;;;;;;2.20;1.93;;;24.30;96.70;;;;;;5052789;28;20041;-77
2022/08/25 04:34:21;;;;;;;2.15;1.50;;;24.30;96.70;;;;;;5047856;28;20041;-75
2022/08/25 04:37:01;;;;;;;3.30;1.65;;;24.30;96.70;;;;;;5028983;28;20056;-75
2022/08/25 04:39:30;;;;;;;3.60;1.73;;;24.30;96.70;;;;;;5037726;28;20454;-75
2022/08/25 04:41:59;;;;;;;2.78;1.73;;;24.20;96.70;;;;;;5046127;28;20444;-74
2022/08/25 04:44:28;;;;;;;3.47;1.58;;;24.20;96.70;;;;;;5039806;28;20079;-75
2022/08/25 04:46:57;;;;;;;2.10;1.60;;;24.10;96.70;;;;;;5043601;28;20547;-75
2022/08/25 04:49:25;;;;;;;2.40;1.40;;;24.10;96.70;;;;;;5052432;28;20407;-75
2022/08/25 04:51:55;;;;;;;2.03;1.63;;;24.10;96.70;;;;;;5040663;28;20489;-75
2022/08/25 04:54:24;;;;;;;3.35;1.50;;;24.00;96.70;;;;;;5047746;28;20089;-75
2022/08/25 04:56:53;;;;;;;4.80;1.50;;;24.10;96.70;;;;;;5057674;28;20562;-75
2022/08/25 04:59:26;;;;;;;3.28;1.40;;;24.10;96.70;;;;;;5055057;28;20099;-75
2022/08/25 05:02:00;;;;;;;2.35;1.85;;;24.00;96.70;;;;;;5058599;28;20045;-75
2022/08/25 05:04:30;;;;;;;3.22;1.73;;;24.20;96.70;;;;;;5044574;28;20053;-75
2022/08/25 05:06:58;;;;;;;3.33;1.75;;;24.20;96.70;;;;;;5042472;28;20400;-75
2022/08/25 05:09:28;;;;;;;3.35;2.08;;;24.10;96.70;;;;;;5058688;28;20045;-75
2022/08/25 05:12:00;;;;;;;2.10;1.90;;;23.90;96.70;;;;;;5039697;28;20135;-75
2022/08/25 05:14:28;;;;;;;2.40;1.60;;;23.80;96.70;;;;;;5056695;28;20215;-75
2022/08/25 05:16:56;;;;;;;3.42;1.75;;;23.70;96.70;;;;;;5059639;28;20052;-75
2022/08/25 05:19:25;;;;;;;3.63;1.90;;;24.00;96.70;;;;;;5033788;28;20048;-75
2022/08/25 05:21:53;;;;;;;1.98;1.70;;;23.90;96.70;;;;;;5044008;28;20048;-75
2022/08/25 05:24:24;;;;;;;2.97;1.85;;;24.10;96.70;;;;;;5058496;28;20044;-75
2022/08/25 05:26:54;;;;;;;4.03;2.30;;;24.20;96.70;;;;;;5051296;28;20037;-75
2022/08/25 05:29:22;;;;;;;4.78;1.90;;;24.00;96.70;;;;;;5035377;28;20048;-75
2022/08/25 05:31:50;;;;;;;4.32;2.28;;;23.90;96.70;;;;;;5023536;28;20049;-75
2022/08/25 05:34:20;;;;;;;3.00;1.80;;;24.00;96.70;;;;;;5037719;28;20068;-75
2022/08/25 05:36:48;;;;;;;2.83;2.17;;;24.10;96.70;;;;;;5038996;28;20045;-75
2022/08/25 05:39:17;;;;;;;3.17;2.05;;;24.10;96.70;;;;;;5043385;28;20107;-75
2022/08/25 05:41:44;;;;;;;3.28;1.95;;;24.20;96.70;;;;;;5051128;28;20095;-75
2022/08/25 05:44:15;;;;;;;3.38;2.17;;;24.20;96.70;;;;;;5055282;28;20131;-75
2022/08/25 05:46:48;;;;;;;4.70;2.47;;;24.20;96.70;;;;;;5044005;28;20159;-74
2022/08/25 05:49:16;;;;;;;4.38;2.33;;;24.20;96.70;;;;;;5054584;28;20132;-74
2022/08/25 05:51:44;;;;;;;3.83;2.42;;;24.40;96.70;;;;;;5039523;28;20044;-75
2022/08/25 05:54:12;;;;;;;3.75;2.40;;;24.30;96.70;;;;;;5054720;28;20053;-73
2022/08/25 05:56:40;;;;;;;4.88;2.42;;;24.60;96.70;;;;;;5049576;28;20744;-78
2022/08/25 05:59:08;;;;;;;5.63;2.60;;;24.70;96.70;;;;;;5040555;28;20055;-77
2022/08/25 06:04:24;;;;;;;5.15;2.40;;;24.70;96.70;;;;;;5052984;28;20732;-80
2022/08/25 06:06:53;;;;;;;3.85;2.25;;;24.80;96.70;;;;;;5056640;28;20043;-79
2022/08/25 06:09:22;;;;;;;3.10;2.60;;;24.90;96.70;;;;;;5052785;28;20403;-79
2022/08/25 06:11:51;;;;;;;3.10;2.30;;;24.90;96.70;;;;;;5040797;28;20544;-76
2022/08/25 06:14:22;;;;;;;2.55;1.90;;;24.80;96.70;;;;;;5041073;28;20595;-77
2022/08/25 06:16:52;;;;;;;2.25;1.90;;;24.80;96.70;;;;;;5052446;28;20052;-76
2022/08/25 06:19:21;;;;;;;2.75;1.98;;;24.80;96.70;;;;;;5041721;28;21178;-77
2022/08/25 06:21:54;;;;;;;2.30;2.00;;;24.90;96.70;;;;;;5057446;28;20923;-77
2022/08/25 06:24:23;;;;;;;3.92;2.00;;;25.00;96.70;;;;;;5058074;28;20041;-76
2022/08/25 06:26:51;;;;;;;2.13;1.92;;;25.00;96.70;;;;;;5057927;28;20513;-77
2022/08/25 06:29:19;;;;;;;3.15;2.08;;;25.00;96.70;;;;;;5024093;28;20041;-76
2022/08/25 06:31:48;;;;;;;4.30;1.90;;;25.00;96.70;;;;;;5040900;28;20072;-77
2022/08/25 06:34:18;;;;;;;3.10;1.70;;;25.00;96.70;;;;;;5073875;28;20076;-76
2022/08/25 06:36:50;;;;;;;4.80;2.15;;;25.20;96.70;;;;;;5040538;28;20048;-76
2022/08/25 06:39:18;;;;;;;3.08;2.33;;;25.20;96.70;;;;;;5032214;28;20045;-77
2022/08/25 06:41:51;;;;;;;2.70;2.13;;;25.30;96.70;;;;;;5042622;28;20833;-76
2022/08/25 06:44:19;;;;;;;3.08;1.95;;;25.40;96.70;;;;;;5049436;28;20045;-79
2022/08/25 06:46:47;;;;;;;2.42;2.03;;;25.40;96.70;;;;;;5022389;28;20086;-78
2022/08/25 06:49:17;;;;;;;2.22;1.90;;;25.50;96.70;;;;;;5061778;28;20132;-78
2022/08/25 06:51:45;;;;;;;3.25;2.03;;;25.40;96.70;;;;;;5054623;28;20041;-79
2022/08/25 06:54:13;;;;;;;2.85;1.90;;;25.40;96.70;;;;;;5051402;28;20049;-79
2022/08/25 06:56:42;;;;;;;4.65;2.17;;;25.40;96.70;;;;;;5060579;28;20482;-79
2022/08/25 06:59:10;;;;;;;3.55;2.35;;;25.50;96.70;;;;;;5038969;28;20049;-78
2022/08/25 07:01:38;;;;;;;4.90;2.22;;;25.50;96.70;;;;;;5056410;28;20131;-78
2022/08/25 07:04:07;;;;;;;2.85;2.10;;;25.30;96.70;;;;;;5041471;28;20064;-78
2022/08/25 07:06:41;;;;;;;3.45;2.08;;;25.30;96.70;;;;;;5073511;28;20075;-78
2022/08/25 07:09:10;;;;;;;7.43;2.33;;;25.20;96.70;;;;;;5049220;28;20409;-79
2022/08/25 07:11:39;;;;;;;2.85;2.38;;;25.40;96.70;;;;;;5030400;28;20118;-78
2022/08/25 07:14:10;;;;;;;4.85;2.10;;;25.40;96.70;;;;;;5051722;28;20500;-78
2022/08/25 07:16:39;;;;;;;2.10;1.77;;;25.50;96.70;;;;;;5041552;28;20132;-79
2022/08/25 07:19:10;;;;;;;4.70;2.15;;;25.60;96.70;;;;;;5061767;28;20040;-78
2022/08/25 07:21:44;;;;;;;3.67;2.17;;;25.60;96.70;;;;;;5057943;28;20056;-77
2022/08/25 07:24:14;;;;;;;6.07;2.00;;;25.70;96.70;;;;;;5035652;28;20051;-77
2022/08/25 07:26:45;;;;;;;3.38;2.50;;;25.80;96.70;;;;;;5038602;28;20067;-76
2022/08/25 07:29:16;;;;;;;4.70;2.60;;;25.80;96.70;;;;;;5034924;28;20410;-75
2022/08/25 07:31:44;;;;;;;3.78;2.10;;;25.90;96.70;;;;;;5057032;28;20048;-75
2022/08/25 07:37:03;;;;;;;4.30;2.22;;;26.00;96.70;;;;;;5041377;28;20510;-77
2022/08/25 07:39:33;;;;;;;3.03;2.25;;;26.10;96.70;;;;;;5055089;28;20064;-76
2022/08/25 07:42:01;;;;;;;3.67;2.55;;;26.20;96.70;;;;;;5046727;28;20133;-77
2022/08/25 07:44:30;;;;;;;3.20;2.28;;;26.30;96.70;;;;;;5056213;28;20037;-81
2022/08/25 07:46:58;;;;;;;4.03;2.38;;;26.30;96.70;;;;;;5028304;28;20095;-80
2022/08/25 07:49:27;;;;;;;3.60;2.47;;;26.40;96.70;;;;;;5027297;28;20099;-79
2022/08/25 07:52:08;;;;;;;3.80;2.40;;;26.40;96.70;;;;;;5034444;28;20044;-79
2022/08/25 07:54:36;;;;;;;4.88;2.53;;;26.50;96.70;;;;;;5042565;28;20664;-79
2022/08/25 07:57:07;;;;;;;3.30;2.30;;;26.50;96.70;;;;;;5052397;28;20048;-79
2022/08/25 07:59:38;;;;;;;3.47;2.38;;;26.50;96.70;;;;;;5040855;28;20048;-79
2022/08/25 08:02:08;;;;;;;4.05;2.33;;;26.60;96.70;;;;;;5037295;28;20513;-78
2022/08/25 08:04:48;;;;;;;3.35;2.30;;;26.70;96.70;;;;;;5035388;28;20083;-78
2022/08/25 08:07:20;;;;;;;3.53;2.05;;;26.80;96.70;;;;;;5038443;28;20639;-79
2022/08/25 08:09:49;;;;;;;4.10;1.75;;;26.80;96.70;;;;;;5031574;28;20502;-80
2022/08/25 08:12:38;;;;;;;6.75;2.80;;;26.90;96.70;;;;;;5058415;28;20090;-79
2022/08/25 08:15:07;;;;;;;3.97;2.15;;;26.90;96.70;;;;;;5067754;28;20398;-78
2022/08/25 08:17:38;;;;;;;6.55;2.50;;;27.00;96.70;;;;;;5063880;28;20071;-78
2022/08/25 08:20:08;;;;;;;3.50;2.35;;;27.10;96.70;;;;;;5058810;28;20045;-78
2022/08/25 08:22:41;;;;;;;4.35;2.55;;;27.20;96.70;;;;;;5047158;28;20057;-79
2022/08/25 08:25:10;;;;;;;2.88;2.30;;;27.30;96.70;;;;;;5060436;28;20049;-78
2022/08/25 08:27:45;;;;;;;6.43;2.42;;;27.30;96.70;;;;;;5044575;28;20127;-78
2022/08/25 08:30:14;;;;;;;2.72;2.10;;;27.50;96.70;;;;;;5058020;28;20047;-78
2022/08/25 08:32:42;;;;;;;4.65;2.53;;;27.60;96.70;;;;;;5038261;28;20048;-78
2022/08/25 08:35:30;;;;;;;3.20;2.35;;;27.70;96.70;;;;;;5024713;28;20177;-78
2022/08/25 08:38:00;;;;;;;4.03;2.20;;;27.70;96.70;;;;;;5043948;28;20048;-78
2022/08/25 08:40:30;;;;;;;3.47;1.98;;;27.90;96.70;;;;;;5055104;28;20045;-77
2022/08/25 08:43:05;;;;;;;3.25;2.55;;;27.90;96.70;;;;;;5044822;28;20475;-78
2022/08/25 08:45:49;;;;;;;;;;;28.00;96.70;;;;;;5031640;28;20515;-78
2022/08/25 08:48:42;;;;;;;2.50;2.20;;;28.10;96.70;;;;;;5041866;28;19928;-78
2022/08/25 08:51:19;;;;;;;3.13;1.90;;;28.00;96.70;;;;;;5039439;28;20049;-78
2022/08/25 08:53:54;;;;;;;2.95;2.38;;;28.20;96.70;;;;;;5049727;28;20198;-78
2022/08/25 08:56:28;;;;;;;3.13;2.15;;;28.20;96.70;;;;;;5033126;28;20107;-77
2022/08/25 08:59:01;;;;;;;2.28;2.08;;;28.20;96.70;;;;;;5047941;28;20136;-78
2022/08/25 09:01:41;;;;;;;4.70;2.33;;;28.10;96.70;;;;;;5063662;28;20041;-78
2022/08/25 09:04:15;;;;;;;3.90;2.20;;;28.20;96.70;;;;;;5043209;28;20131;-78
2022/08/25 09:06:49;;;;;;;2.75;2.40;;;28.40;96.70;;;;;;5066621;28;20040;-77
2022/08/25 09:09:25;;;;;;;2.65;2.38;;;28.50;96.70;;;;;;5038750;28;20096;-78
2022/08/25 09:12:00;;;;;;;3.50;2.30;;;28.50;96.70;;;;;;5041930;28;20068;-78
2022/08/25 09:14:44;;;;;;;3.90;2.55;;;28.50;96.70;;;;;;5043793;28;20490;-79
2022/08/25 09:17:37;;;;;;;4.15;2.30;;;28.50;96.70;;;;;;5039235;28;21239;-78
2022/08/25 09:20:16;;;;;;;2.90;2.60;;;28.60;96.70;;;;;;5042973;28;20368;-79
2022/08/25 09:22:55;;;;;;;3.25;2.42;;;28.80;96.70;;;;;;5051955;28;20037;-79
2022/08/25 09:25:34;;;;;;;2.85;2.58;;;28.90;96.70;;;;;;5058949;28;20122;-79
2022/08/25 09:28:24;;;;;;;4.13;2.63;;;29.00;96.70;;;;;;5025363;28;20110;-79
2022/08/25 09:30:58;;;;;;;5.13;2.42;;;29.10;96.70;;;;;;5044581;28;20078;-80
2022/08/25 09:33:29;;;;;;;4.28;2.30;;;29.10;96.70;;;;;;5040450;28;20036;-79
2022/08/25 09:36:00;;;;;;;3.00;2.70;;;29.10;96.70;;;;;;5039894;28;20067;-80
2022/08/25 09:38:33;;;;;;;2.45;2.00;;;29.20;96.70;;;;;;5057010;28;20091;-79
2022/08/25 09:41:02;;;;;;;3.60;2.35;;;29.30;96.70;;;;;;5039334;28;20040;-79
2022/08/25 09:43:33;;;;;;;5.97;2.40;;;29.40;96.70;;;;;;5031134;28;20049;-78
2022/08/25 09:46:07;;;;;;;3.03;2.08;;;29.50;96.70;;;;;;5053796;28;20498;-79
2022/08/25 09:48:43;;;;;;;2.88;2.40;;;29.50;96.70;;;;;;5040901;28;20076;-78
2022/08/25 09:51:22;;;;;;;4.20;2.30;;;29.60;96.70;;;;;;5021128;28;20072;-79
2022/08/25 09:53:54;;;;;;;3.53;2.58;;;29.70;96.70;;;;;;5057369;28;20374;-78
2022/08/25 09:56:26;;;;;;;6.53;2.45;;;29.70;96.70;;;;;;5027741;28;20041;-78
2022/08/25 09:58:56;;;;;;;3.20;2.50;;;29.70;96.70;;;;;;5061636;28;20064;-78
2022/08/25 10:01:29;;;;;;;3.05;2.50;;;29.90;96.70;;;;;;5040268;28;21446;-76
2022/08/25 10:04:03;;;;;;;3.45;2.30;;;30.00;96.70;;;;;;5037260;28;20391;-79
2022/08/25 10:06:36;;;;;;;3.95;2.45;;;29.90;96.70;;;;;;5051338;28;20443;-80
2022/08/25 10:09:06;;;;;;;4.20;2.10;;;30.00;96.70;;;;;;5062534;28;20132;-79
2022/08/25 10:11:42;;;;;;;4.20;2.50;;;30.20;96.70;;;;;;5023425;28;20550;-80
2022/08/25 10:14:20;;;;;;;2.97;2.20;;;30.40;96.70;;;;;;5047065;28;20051;-79
2022/08/25 10:16:48;;;;;;;2.58;2.38;;;30.50;96.70;;;;;;5047736;28;20110;-80
2022/08/25 10:19:25;;;;;;;3.80;2.25;;;30.50;96.70;;;;;;5054834;28;20037;-80
2022/08/25 10:22:06;;;;;;;4.68;2.35;;;30.30;96.70;;;;;;5051916;28;20036;-79
2022/08/25 10:24:39;;;;;;;3.28;2.13;;;30.30;96.70;;;;;;5045992;28;20057;-80
2022/08/25 10:27:25;;;;;;;3.35;2.30;;;30.40;96.70;;;;;;5052878;28;20043;-79
2022/08/25 10:30:12;;;;;;;2.75;2.55;;;30.40;96.70;;;;;;5049103;28;20136;-79
2022/08/25 10:33:07;;;;;;;3.72;2.20;;;30.60;96.70;;;;;;5058432;28;20732;-79
2022/08/25 10:35:49;;;;;;;3.60;2.30;;;30.90;96.70;;;;;;5054631;28;20037;-79
2022/08/25 10:38:37;;;;;;;2.25;2.05;;;31.20;96.70;;;;;;5072323;28;20045;-79
2022/08/25 10:41:35;;;;;;;2.22;2.00;;;31.20;96.70;;;;;;5049976;28;20072;-78
2022/08/25 10:47:31;;;;;;;4.43;2.58;;;31.10;96.70;;;;;;5059736;28;20041;-78
2022/08/25 10:50:08;;;;;;;2.50;2.20;;;31.30;96.70;;;;;;5046872;28;20044;-79
2022/08/25 10:52:44;;;;;;;3.55;2.50;;;31.70;96.70;;;;;;5060577;28;20044;-79
2022/08/25 10:55:18;;;;;;;2.20;1.97;;;31.50;96.70;;;;;;5042828;28;20078;-79
2022/08/25 10:57:55;;;;;;;2.70;2.20;;;31.50;96.70;;;;;;5020960;28;20052;-79
2022/08/25 11:00:28;;;;;;;;;;;31.50;96.70;;;;;;5059607;28;20051;-80
2022/08/25 11:03:18;;;;;;;2.47;2.28;;;31.60;96.70;;;;;;5026387;28;20200;-79
2022/08/25 11:05:53;;;;;;;2.25;2.03;;;31.70;96.70;;;;;;5037162;28;20499;-77
2022/08/25 11:08:32;;;;;;;3.13;2.28;;;31.70;96.70;;;;;;5039506;28;20037;-73
2022/08/25 11:11:05;;;;;;;3.83;2.63;;;31.70;96.70;;;;;;5041017;28;20057;-75
2022/08/25 11:13:41;;;;;;;4.18;2.25;;;31.80;96.70;;;;;;5050664;28;20076;-76
2022/08/25 11:16:14;;;;;;;3.35;2.00;;;31.90;96.70;;;;;;5051657;28;20144;-77
2022/08/25 11:18:54;;;;;;;4.28;1.95;;;31.90;96.70;;;;;;5049961;28;20049;-77
2022/08/25 11:21:30;;;;;;;3.65;2.28;;;32.10;96.70;;;;;;5055701;28;20045;-79
2022/08/25 11:24:08;;;;;;;2.28;2.08;;;32.40;96.70;;;;;;5035287;28;20048;-78
2022/08/25 11:26:41;;;;;;;2.88;2.10;;;32.40;96.70;;;;;;5037306;28;20049;-77
2022/08/25 11:29:15;;;;;;;3.85;2.13;;;32.30;96.70;;;;;;5031560;28;20549;-74
2022/08/25 11:31:48;;;;;;;2.60;1.75;;;32.20;96.70;;;;;;5038674;28;20041;-74
2022/08/25 11:34:21;;;;;;;2.55;2.08;;;32.30;96.70;;;;;;5053562;28;20032;-74
2022/08/25 11:36:52;;;;;;;2.08;1.90;;;32.50;96.70;;;;;;5030695;28;20571;-74
2022/08/25 11:39:33;;;;;;;2.13;1.92;;;32.70;96.70;;;;;;5055019;28;20048;-74
2022/08/25 11:42:16;;;;;;;2.95;1.90;;;32.90;96.70;;;;;;5039617;28;20526;-76
2022/08/25 11:44:54;;;;;;;2.47;1.95;;;33.00;96.70;;;;;;5052091;28;20037;-74
2022/08/25 11:47:38;;;;;;;2.63;1.60;;;33.10;96.70;;;;;;5039702;28;20885;-75
2022/08/25 11:50:21;;;;;;;5.75;2.08;;;33.00;96.70;;;;;;5042642;28;20045;-74
2022/08/25 11:52:54;;;;;;;1.92;1.77;;;33.00;96.70;;;;;;5032475;28;20098;-74
2022/08/25 11:55:45;;;;;;;3.47;2.10;;;33.20;96.70;;;;;;5028974;28;20072;-74
2022/08/25 11:58:38;;;;;;;3.58;2.00;;;33.20;96.70;;;;;;5051769;28;20189;-76
2022/08/25 12:01:11;;;;;;;6.50;1.80;;;33.20;96.70;;;;;;5031767;28;20103;-77
2022/08/25 12:04:13;;;;;;;2.30;1.83;;;33.50;96.70;;;;;;5053602;28;20486;-76
2022/08/25 12:07:14;;;;;;;2.53;1.85;;;33.50;96.70;;;;;;5024329;28;20049;-76
2022/08/25 12:10:08;;;;;;;1.98;1.75;;;33.50;96.70;;;;;;5042316;28;20049;-76
2022/08/25 12:12:54;;;;;;;1.92;1.73;;;33.70;96.60;;;;;;5040117;28;20140;-77
2022/08/25 12:15:25;;;;;;;2.53;1.90;;;33.70;95.80;;;;;;5021038;28;20515;-77
2022/08/25 12:18:09;;;;;;;3.40;1.88;;;33.50;95.80;;;;;;5037462;28;20048;-77
2022/08/25 12:21:27;;;;;;;1.90;1.73;;;33.10;95.60;;;;;;5050532;28;20049;-77
2022/08/25 12:24:15;;;;;;;3.03;1.98;;;32.80;95.90;;;;;;5055738;28;20048;-77
2022/08/25 12:26:56;;;;;;;3.05;1.77;;;32.90;96.30;;;;;;5041740;28;20053;-77
2022/08/25 12:29:32;;;;;;;3.88;1.70;;;32.80;96.70;;;;;;5054056;28;20669;-76
2022/08/25 12:32:14;;;;;;;3.47;2.05;;;32.70;96.70;;;;;;5050087;28;20119;-76
2022/08/25 12:35:12;;;;;;;3.50;1.80;;;32.60;96.70;;;;;;5049413;28;20502;-76
2022/08/25 12:38:03;;;;;;;2.22;1.70;;;32.60;96.70;;;;;;5039905;28;20057;-76
2022/08/25 12:40:45;;;;;;;5.35;1.80;;;32.80;96.70;;;;;;5028335;28;20052;-76
2022/08/25 12:43:24;;;;;;;2.83;2.13;;;33.00;96.70;;;;;;5021467;28;20074;-76
2022/08/25 12:45:54;;;;;;;2.15;1.95;;;33.20;96.70;;;;;;5019951;28;20143;-76
2022/08/25 12:48:54;;;;;;;2.72;1.67;;;33.20;96.60;;;;;;5035476;28;20099;-76
2022/08/25 12:51:25;;;;;;;2.10;1.88;;;33.50;94.50;;;;;;5017093;28;20049;-76
2022/08/25 12:54:10;;;;;;;2.92;2.17;;;33.60;95.70;;;;;;5024578;28;20072;-77
2022/08/25 12:56:46;;;;;;;2.95;1.70;;;33.70;94.60;;;;;;5036756;28;20136;-76
2022/08/25 12:59:17;;;;;;;2.05;1.80;;;33.80;94.30;;;;;;5021467;28;20072;-76
2022/08/25 13:02:06;;;;;;;2.42;1.80;;;34.20;95.00;;;;;;5009697;28;20049;-77
2022/08/25 13:05:04;;;;;;;1.83;1.63;;;34.10;93.30;;;;;;5029237;28;20095;-77
2022/08/25 13:07:57;;;;;;;3.17;1.77;;;33.80;93.90;;;;;;5015240;28;20111;-77
2022/08/25 13:10:44;;;;;;;2.15;1.95;;;33.50;94.50;;;;;;4997541;28;20069;-77
2022/08/25 13:13:22;;;;;;;1.70;1.45;;;33.60;95.60;;;;;;5011662;28;20053;-76
2022/08/25 13:15:59;;;;;;;2.80;1.88;;;33.90;95.20;;;;;;5024397;28;20046;-77
2022/08/25 13:18:46;;;;;;;4.97;2.17;;;33.70;95.70;;;;;;5013718;28;20061;-77
2022/08/25 13:21:34;;;;;;;2.08;1.88;;;33.40;96.70;;;;;;5021990;28;20054;-76
2022/08/25 13:24:11;;;;;;;2.67;1.73;;;33.20;96.70;;;;;;5016787;28;20046;-78
2022/08/25 13:26:42;;;;;;;2.13;1.92;;;33.30;96.70;;;;;;5023992;28;20053;-77
2022/08/25 13:29:18;;;;;;;3.85;1.67;;;33.40;96.70;;;;;;5020977;28;20045;-77